sensor_id;sensor_type;location;lat;lon;timestamp;pressure;altitude;pressure_sealevel;temperature;humidity
74675;BME280;63200;48.810;12.352;2023-07-02T00:01:02;96805.00;;;17.13;79.54
74675;BME280;63200;48.810;12.352;2023-07-02T00:03:27;96806.63;;;17.14;79.17
74675;BME280;63200;48.810;12.352;2023-07-02T00:05:53;96800.00;;;17.15;79.23
74675;BME280;63200;48.810;12.352;2023-07-02T00:08:21;96799.19;;;17.14;79.09
74675;BME280;63200;48.810;12.352;2023-07-02T00:10:46;96798.41;;;17.14;79.33
74675;BME280;63200;48.810;12.352;2023-07-02T00:13:12;96800.34;;;17.13;79.36
74675;BME280;63200;48.810;12.352;2023-07-02T00:15:37;96797.25;;;17.15;79.44
74675;BME280;63200;48.810;12.352;2023-07-02T00:18:02;96799.31;;;17.18;78.88
74675;BME280;63200;48.810;12.352;2023-07-02T00:20:28;96799.78;;;17.20;79.22
74675;BME280;63200;48.810;12.352;2023-07-02T00:22:55;96793.03;;;17.18;79.10
74675;BME280;63200;48.810;12.352;2023-07-02T00:25:21;96802.41;;;17.17;79.36
74675;BME280;63200;48.810;12.352;2023-07-02T00:27:46;96797.25;;;17.15;79.12
74675;BME280;63200;48.810;12.352;2023-07-02T00:30:12;96787.78;;;17.12;79.00
74675;BME280;63200;48.810;12.352;2023-07-02T00:32:37;96791.22;;;17.09;79.04
74675;BME280;63200;48.810;12.352;2023-07-02T00:35:03;96798.97;;;17.07;79.07
74675;BME280;63200;48.810;12.352;2023-07-02T00:37:28;96794.63;;;17.06;78.96
74675;BME280;63200;48.810;12.352;2023-07-02T00:39:54;96800.47;;;17.05;79.23
74675;BME280;63200;48.810;12.352;2023-07-02T00:42:19;96796.03;;;17.00;79.13
74675;BME280;63200;48.810;12.352;2023-07-02T00:44:45;96753.13;;;16.71;79.22
74675;BME280;63200;48.810;12.352;2023-07-02T00:47:11;96796.34;;;16.98;79.05
74675;BME280;63200;48.810;12.352;2023-07-02T00:49:37;96790.75;;;16.95;79.47
74675;BME280;63200;48.810;12.352;2023-07-02T00:52:03;96751.66;;;16.61;79.60
74675;BME280;63200;48.810;12.352;2023-07-02T00:54:29;96735.91;;;16.58;79.39
74675;BME280;63200;48.810;12.352;2023-07-02T00:56:55;96800.81;;;16.91;79.68
74675;BME280;63200;48.810;12.352;2023-07-02T00:59:20;96803.56;;;16.91;79.71
74675;BME280;63200;48.810;12.352;2023-07-02T01:01:46;96799.22;;;16.90;79.40
74675;BME280;63200;48.810;12.352;2023-07-02T01:04:16;96802.16;;;16.97;79.40
74675;BME280;63200;48.810;12.352;2023-07-02T01:06:43;96748.44;;;16.59;79.34
74675;BME280;63200;48.810;12.352;2023-07-02T01:09:09;96807.31;;;16.98;79.43
74675;BME280;63200;48.810;12.352;2023-07-02T01:16:36;96795.91;;;16.96;79.11
74675;BME280;63200;48.810;12.352;2023-07-02T01:19:05;96802.50;;;16.95;79.33
74675;BME280;63200;48.810;12.352;2023-07-02T01:21:36;96793.72;;;16.90;79.61
74675;BME280;63200;48.810;12.352;2023-07-02T01:24:03;96799.84;;;16.87;79.71
74675;BME280;63200;48.810;12.352;2023-07-02T01:26:30;96798.38;;;16.77;80.01
74675;BME280;63200;48.810;12.352;2023-07-02T01:28:56;96767.41;;;16.52;80.19
74675;BME280;63200;48.810;12.352;2023-07-02T01:31:21;96806.47;;;16.73;80.35
74675;BME280;63200;48.810;12.352;2023-07-02T01:33:50;96798.03;;;16.66;80.42
74675;BME280;63200;48.810;12.352;2023-07-02T01:36:15;96797.56;;;16.64;80.81
74675;BME280;63200;48.810;12.352;2023-07-02T01:38:40;96799.84;;;16.62;81.17
74675;BME280;63200;48.810;12.352;2023-07-02T01:41:06;96799.59;;;16.55;80.97
74675;BME280;63200;48.810;12.352;2023-07-02T01:43:32;96802.00;;;16.56;80.99
74675;BME280;63200;48.810;12.352;2023-07-02T01:45:57;96809.84;;;16.45;80.79
74675;BME280;63200;48.810;12.352;2023-07-02T01:48:22;96804.84;;;16.47;80.72
74675;BME280;63200;48.810;12.352;2023-07-02T01:50:48;96808.03;;;16.49;80.44
74675;BME280;63200;48.810;12.352;2023-07-02T01:53:13;96781.25;;;16.22;80.56
74675;BME280;63200;48.810;12.352;2023-07-02T01:55:38;96805.06;;;16.42;80.11
74675;BME280;63200;48.810;12.352;2023-07-02T01:58:04;96812.38;;;16.38;79.99
74675;BME280;63200;48.810;12.352;2023-07-02T02:00:29;96807.88;;;16.21;80.27
74675;BME280;63200;48.810;12.352;2023-07-02T02:02:54;96816.56;;;16.23;80.28
74675;BME280;63200;48.810;12.352;2023-07-02T02:05:20;96810.03;;;16.28;80.05
74675;BME280;63200;48.810;12.352;2023-07-02T02:07:45;96816.66;;;16.27;79.59
74675;BME280;63200;48.810;12.352;2023-07-02T02:10:11;96821.34;;;16.26;79.52
74675;BME280;63200;48.810;12.352;2023-07-02T02:12:36;96826.25;;;16.21;79.37
74675;BME280;63200;48.810;12.352;2023-07-02T02:15:01;96827.59;;;16.14;79.61
74675;BME280;63200;48.810;12.352;2023-07-02T02:17:27;96832.59;;;16.12;79.71
74675;BME280;63200;48.810;12.352;2023-07-02T02:19:52;96834.19;;;16.13;79.58
74675;BME280;63200;48.810;12.352;2023-07-02T02:22:17;96840.94;;;16.16;79.79
74675;BME280;63200;48.810;12.352;2023-07-02T02:24:43;96841.28;;;16.14;79.71
74675;BME280;63200;48.810;12.352;2023-07-02T02:27:08;96843.81;;;16.20;79.55
74675;BME280;63200;48.810;12.352;2023-07-02T02:29:34;96833.19;;;16.18;79.56
74675;BME280;63200;48.810;12.352;2023-07-02T02:32:00;96834.56;;;16.24;79.49
74675;BME280;63200;48.810;12.352;2023-07-02T02:34:25;96828.44;;;16.27;79.31
74675;BME280;63200;48.810;12.352;2023-07-02T02:36:50;96828.88;;;16.29;79.29
74675;BME280;63200;48.810;12.352;2023-07-02T02:39:16;96831.41;;;16.35;79.33
74675;BME280;63200;48.810;12.352;2023-07-02T02:41:41;96840.09;;;16.37;79.42
74675;BME280;63200;48.810;12.352;2023-07-02T02:44:06;96842.50;;;16.38;79.31
74675;BME280;63200;48.810;12.352;2023-07-02T02:46:32;96844.91;;;16.40;79.31
74675;BME280;63200;48.810;12.352;2023-07-02T02:48:58;96812.06;;;16.19;79.29
74675;BME280;63200;48.810;12.352;2023-07-02T02:51:23;96854.03;;;16.44;79.47
74675;BME280;63200;48.810;12.352;2023-07-02T02:53:48;96851.50;;;16.39;79.57
74675;BME280;63200;48.810;12.352;2023-07-02T02:56:14;96857.78;;;16.39;79.85
74675;BME280;63200;48.810;12.352;2023-07-02T02:58:40;96853.91;;;16.40;79.77
74675;BME280;63200;48.810;12.352;2023-07-02T03:01:05;96858.38;;;16.45;79.61
74675;BME280;63200;48.810;12.352;2023-07-02T03:03:36;96856.09;;;16.47;78.98
74675;BME280;63200;48.810;12.352;2023-07-02T03:06:04;96851.88;;;16.49;77.22
74675;BME280;63200;48.810;12.352;2023-07-02T03:08:29;96856.34;;;16.54;77.53
74675;BME280;63200;48.810;12.352;2023-07-02T03:10:54;96865.34;;;16.55;77.76
74675;BME280;63200;48.810;12.352;2023-07-02T03:13:20;96859.44;;;16.53;77.15
74675;BME280;63200;48.810;12.352;2023-07-02T03:15:45;96861.63;;;16.59;76.73
74675;BME280;63200;48.810;12.352;2023-07-02T03:18:10;96848.03;;;16.63;76.49
74675;BME280;63200;48.810;12.352;2023-07-02T03:20:35;96832.59;;;16.58;76.62
74675;BME280;63200;48.810;12.352;2023-07-02T03:23:01;96850.53;;;16.68;76.86
74675;BME280;63200;48.810;12.352;2023-07-02T03:25:26;96844.47;;;16.50;77.35
74675;BME280;63200;48.810;12.352;2023-07-02T03:27:51;96841.31;;;16.60;77.25
74675;BME280;63200;48.810;12.352;2023-07-02T03:30:17;96833.41;;;16.59;77.67
74675;BME280;63200;48.810;12.352;2023-07-02T03:32:42;96818.53;;;16.47;77.09
74675;BME280;63200;48.810;12.352;2023-07-02T03:35:07;96839.34;;;16.61;76.93
74675;BME280;63200;48.810;12.352;2023-07-02T03:37:33;96834.34;;;16.63;77.04
74675;BME280;63200;48.810;12.352;2023-07-02T03:39:58;96847.34;;;16.66;76.72
74675;BME280;63200;48.810;12.352;2023-07-02T03:42:24;96853.47;;;16.51;76.73
74675;BME280;63200;48.810;12.352;2023-07-02T03:44:49;96857.03;;;16.51;76.55
74675;BME280;63200;48.810;12.352;2023-07-02T03:47:14;96846.19;;;16.55;76.28
74675;BME280;63200;48.810;12.352;2023-07-02T03:49:41;96847.22;;;16.50;75.50
74675;BME280;63200;48.810;12.352;2023-07-02T03:52:07;96851.44;;;16.47;74.37
74675;BME280;63200;48.810;12.352;2023-07-02T03:54:32;96857.47;;;16.41;73.17
74675;BME280;63200;48.810;12.352;2023-07-02T03:56:57;96859.28;;;16.49;73.39
74675;BME280;63200;48.810;12.352;2023-07-02T03:59:23;96856.56;;;16.49;72.23
74675;BME280;63200;48.810;12.352;2023-07-02T04:01:48;96860.22;;;16.53;71.48
74675;BME280;63200;48.810;12.352;2023-07-02T04:04:13;96866.41;;;16.62;71.17
74675;BME280;63200;48.810;12.352;2023-07-02T04:06:39;96864.25;;;16.68;71.29
74675;BME280;63200;48.810;12.352;2023-07-02T04:09:04;96866.19;;;16.68;70.87
74675;BME280;63200;48.810;12.352;2023-07-02T04:11:29;96813.25;;;16.30;70.67
74675;BME280;63200;48.810;12.352;2023-07-02T04:13:55;96869.63;;;16.64;70.76
74675;BME280;63200;48.810;12.352;2023-07-02T04:16:20;96852.00;;;16.53;71.02
74675;BME280;63200;48.810;12.352;2023-07-02T04:18:45;96877.03;;;16.64;71.00
74675;BME280;63200;48.810;12.352;2023-07-02T04:21:10;96880.19;;;16.54;71.12
74675;BME280;63200;48.810;12.352;2023-07-02T04:23:36;96880.16;;;16.41;71.83
74675;BME280;63200;48.810;12.352;2023-07-02T04:26:01;96887.31;;;16.33;71.79
74675;BME280;63200;48.810;12.352;2023-07-02T04:28:26;96896.22;;;16.30;72.06
74675;BME280;63200;48.810;12.352;2023-07-02T04:30:52;96894.16;;;16.27;72.23
74675;BME280;63200;48.810;12.352;2023-07-02T04:33:18;96896.09;;;16.27;72.54
74675;BME280;63200;48.810;12.352;2023-07-02T04:35:43;96901.50;;;16.36;72.31
74675;BME280;63200;48.810;12.352;2023-07-02T04:38:08;96904.56;;;16.34;72.05
74675;BME280;63200;48.810;12.352;2023-07-02T04:40:34;96900.94;;;16.42;71.99
74675;BME280;63200;48.810;12.352;2023-07-02T04:42:59;96903.09;;;16.37;71.59
74675;BME280;63200;48.810;12.352;2023-07-02T04:45:25;96904.22;;;16.36;71.50
74675;BME280;63200;48.810;12.352;2023-07-02T04:47:51;96908.44;;;16.33;72.04
74675;BME280;63200;48.810;12.352;2023-07-02T04:50:17;96913.25;;;16.36;72.30
74675;BME280;63200;48.810;12.352;2023-07-02T04:52:43;96920.28;;;16.58;71.82
74675;BME280;63200;48.810;12.352;2023-07-02T04:55:08;96915.69;;;16.83;71.53
74675;BME280;63200;48.810;12.352;2023-07-02T04:57:33;96914.28;;;17.11;71.33
74675;BME280;63200;48.810;12.352;2023-07-02T04:59:59;96924.69;;;17.18;71.38
74675;BME280;63200;48.810;12.352;2023-07-02T05:02:24;96920.81;;;17.19;71.18
74675;BME280;63200;48.810;12.352;2023-07-02T05:04:49;96926.03;;;17.11;71.20
74675;BME280;63200;48.810;12.352;2023-07-02T05:07:18;96922.38;;;16.95;71.33
74675;BME280;63200;48.810;12.352;2023-07-02T05:09:43;96926.25;;;16.94;71.36
74675;BME280;63200;48.810;12.352;2023-07-02T05:12:09;96927.94;;;16.98;71.21
74675;BME280;63200;48.810;12.352;2023-07-02T05:14:34;96931.66;;;17.27;71.77
74675;BME280;63200;48.810;12.352;2023-07-02T05:16:59;96926.28;;;17.56;70.33
74675;BME280;63200;48.810;12.352;2023-07-02T05:19:25;96926.16;;;17.77;69.35
74675;BME280;63200;48.810;12.352;2023-07-02T05:21:50;96925.47;;;17.80;68.39
74675;BME280;63200;48.810;12.352;2023-07-02T05:24:15;96932.69;;;17.60;67.21
74675;BME280;63200;48.810;12.352;2023-07-02T05:26:41;96944.56;;;17.27;68.10
74675;BME280;63200;48.810;12.352;2023-07-02T05:29:06;96931.78;;;17.31;68.48
74675;BME280;63200;48.810;12.352;2023-07-02T05:31:31;96955.78;;;17.22;68.95
74675;BME280;63200;48.810;12.352;2023-07-02T05:33:57;96951.88;;;17.23;68.57
74675;BME280;63200;48.810;12.352;2023-07-02T05:36:22;96938.63;;;17.12;68.30
74675;BME280;63200;48.810;12.352;2023-07-02T05:38:47;96948.91;;;17.15;67.67
74675;BME280;63200;48.810;12.352;2023-07-02T05:41:22;96951.53;;;17.24;67.26
74675;BME280;63200;48.810;12.352;2023-07-02T05:43:48;96901.81;;;17.13;65.87
74675;BME280;63200;48.810;12.352;2023-07-02T05:46:14;96948.34;;;17.96;65.49
74675;BME280;63200;48.810;12.352;2023-07-02T05:48:43;96915.94;;;17.90;63.74
74675;BME280;63200;48.810;12.352;2023-07-02T05:51:08;96948.88;;;17.90;63.68
74675;BME280;63200;48.810;12.352;2023-07-02T05:53:34;96959.00;;;17.98;63.41
74675;BME280;63200;48.810;12.352;2023-07-02T05:56:00;96963.31;;;17.87;63.76
74675;BME280;63200;48.810;12.352;2023-07-02T05:58:25;96927.31;;;17.51;64.33
74675;BME280;63200;48.810;12.352;2023-07-02T06:00:51;96968.94;;;17.78;63.74
74675;BME280;63200;48.810;12.352;2023-07-02T06:03:19;96971.09;;;17.85;64.02
74675;BME280;63200;48.810;12.352;2023-07-02T06:05:46;96969.28;;;17.89;62.73
74675;BME280;63200;48.810;12.352;2023-07-02T06:08:14;96926.75;;;17.70;63.10
74675;BME280;63200;48.810;12.352;2023-07-02T06:10:40;96973.84;;;18.09;62.37
74675;BME280;63200;48.810;12.352;2023-07-02T06:13:05;96983.03;;;18.01;62.86
74675;BME280;63200;48.810;12.352;2023-07-02T06:15:30;96983.22;;;18.08;62.94
74675;BME280;63200;48.810;12.352;2023-07-02T06:17:56;96982.31;;;17.92;62.42
74675;BME280;63200;48.810;12.352;2023-07-02T06:20:21;96989.19;;;17.73;62.69
74675;BME280;63200;48.810;12.352;2023-07-02T06:22:46;96996.50;;;17.69;63.12
74675;BME280;63200;48.810;12.352;2023-07-02T06:25:12;97005.41;;;17.41;63.35
74675;BME280;63200;48.810;12.352;2023-07-02T06:27:38;96980.03;;;17.32;62.85
74675;BME280;63200;48.810;12.352;2023-07-02T06:30:04;96999.91;;;17.41;62.84
74675;BME280;63200;48.810;12.352;2023-07-02T06:32:29;97004.66;;;17.20;62.95
74675;BME280;63200;48.810;12.352;2023-07-02T06:34:55;97007.97;;;17.13;62.62
74675;BME280;63200;48.810;12.352;2023-07-02T06:37:20;97001.38;;;17.26;63.63
74675;BME280;63200;48.810;12.352;2023-07-02T06:39:45;97011.00;;;17.32;63.53
74675;BME280;63200;48.810;12.352;2023-07-02T06:42:10;97008.94;;;17.29;63.14
74675;BME280;63200;48.810;12.352;2023-07-02T06:44:36;97010.41;;;17.27;64.20
74675;BME280;63200;48.810;12.352;2023-07-02T06:47:01;97022.28;;;17.19;63.42
74675;BME280;63200;48.810;12.352;2023-07-02T06:49:26;97026.38;;;17.12;63.83
74675;BME280;63200;48.810;12.352;2023-07-02T06:51:52;97023.72;;;17.04;63.80
74675;BME280;63200;48.810;12.352;2023-07-02T06:54:17;97025.31;;;17.05;63.70
74675;BME280;63200;48.810;12.352;2023-07-02T06:56:42;97033.84;;;16.91;63.98
74675;BME280;63200;48.810;12.352;2023-07-02T06:59:08;97021.81;;;16.83;64.63
74675;BME280;63200;48.810;12.352;2023-07-02T07:01:33;97039.38;;;17.03;64.32
74675;BME280;63200;48.810;12.352;2023-07-02T07:03:58;97044.59;;;16.96;63.81
74675;BME280;63200;48.810;12.352;2023-07-02T07:06:25;97048.75;;;17.14;63.72
74675;BME280;63200;48.810;12.352;2023-07-02T07:08:50;97047.19;;;17.13;63.75
74675;BME280;63200;48.810;12.352;2023-07-02T07:11:16;97050.03;;;17.17;63.66
74675;BME280;63200;48.810;12.352;2023-07-02T07:13:41;97053.28;;;17.31;63.41
74675;BME280;63200;48.810;12.352;2023-07-02T07:16:08;97049.06;;;17.34;63.33
74675;BME280;63200;48.810;12.352;2023-07-02T07:18:34;97051.22;;;17.28;62.67
74675;BME280;63200;48.810;12.352;2023-07-02T07:20:59;97048.59;;;17.32;62.86
74675;BME280;63200;48.810;12.352;2023-07-02T07:23:25;97050.94;;;17.42;61.14
74675;BME280;63200;48.810;12.352;2023-07-02T07:25:50;97055.28;;;17.56;61.09
74675;BME280;63200;48.810;12.352;2023-07-02T07:28:16;97060.56;;;17.61;61.69
74675;BME280;63200;48.810;12.352;2023-07-02T07:30:42;97054.72;;;17.62;61.25
74675;BME280;63200;48.810;12.352;2023-07-02T07:33:08;97061.78;;;17.51;61.09
74675;BME280;63200;48.810;12.352;2023-07-02T07:35:33;97060.38;;;17.45;60.40
74675;BME280;63200;48.810;12.352;2023-07-02T07:37:58;97015.75;;;17.11;60.41
74675;BME280;63200;48.810;12.352;2023-07-02T07:40:24;97067.25;;;17.39;60.15
74675;BME280;63200;48.810;12.352;2023-07-02T07:42:49;97063.66;;;17.26;61.60
74675;BME280;63200;48.810;12.352;2023-07-02T07:45:14;97069.34;;;16.87;63.07
74675;BME280;63200;48.810;12.352;2023-07-02T07:47:40;97074.44;;;16.55;65.04
74675;BME280;63200;48.810;12.352;2023-07-02T07:50:06;97071.53;;;16.52;65.77
74675;BME280;63200;48.810;12.352;2023-07-02T07:52:41;97089.03;;;16.38;66.25
74675;BME280;63200;48.810;12.352;2023-07-02T07:55:07;97058.41;;;16.15;67.73
74675;BME280;63200;48.810;12.352;2023-07-02T07:57:34;97078.47;;;16.28;69.66
74675;BME280;63200;48.810;12.352;2023-07-02T08:00:00;97095.84;;;16.02;70.30
74675;BME280;63200;48.810;12.352;2023-07-02T08:02:25;97093.94;;;15.94;71.32
74675;BME280;63200;48.810;12.352;2023-07-02T08:04:51;97088.34;;;15.90;71.42
74675;BME280;63200;48.810;12.352;2023-07-02T08:07:16;97083.38;;;15.84;72.65
74675;BME280;63200;48.810;12.352;2023-07-02T08:09:42;97061.47;;;15.75;73.43
74675;BME280;63200;48.810;12.352;2023-07-02T08:12:07;97036.69;;;15.71;73.88
74675;BME280;63200;48.810;12.352;2023-07-02T08:14:34;97081.53;;;15.96;73.41
74675;BME280;63200;48.810;12.352;2023-07-02T08:17:00;97084.25;;;15.96;72.64
74675;BME280;63200;48.810;12.352;2023-07-02T08:19:25;97069.59;;;16.01;72.97
74675;BME280;63200;48.810;12.352;2023-07-02T08:21:50;97076.13;;;16.39;72.03
74675;BME280;63200;48.810;12.352;2023-07-02T08:24:16;97074.97;;;16.48;72.18
74675;BME280;63200;48.810;12.352;2023-07-02T08:26:41;97076.00;;;16.77;70.45
74675;BME280;63200;48.810;12.352;2023-07-02T08:29:06;97078.50;;;17.12;70.31
74675;BME280;63200;48.810;12.352;2023-07-02T08:31:32;97085.25;;;17.15;68.17
74675;BME280;63200;48.810;12.352;2023-07-02T08:33:57;97075.84;;;17.37;67.34
74675;BME280;63200;48.810;12.352;2023-07-02T08:36:22;97080.00;;;17.80;67.08
74675;BME280;63200;48.810;12.352;2023-07-02T08:38:48;97070.19;;;18.29;65.59
74675;BME280;63200;48.810;12.352;2023-07-02T08:41:14;97075.19;;;18.52;64.42
74675;BME280;63200;48.810;12.352;2023-07-02T08:43:40;97007.91;;;18.74;61.72
74675;BME280;63200;48.810;12.352;2023-07-02T08:46:05;97071.88;;;19.88;61.86
74675;BME280;63200;48.810;12.352;2023-07-02T08:48:33;97070.31;;;20.38;57.05
74675;BME280;63200;48.810;12.352;2023-07-02T08:50:59;97075.78;;;21.09;55.45
74675;BME280;63200;48.810;12.352;2023-07-02T08:53:24;97076.00;;;20.81;52.16
74675;BME280;63200;48.810;12.352;2023-07-02T08:55:57;97070.84;;;20.28;53.21
74675;BME280;63200;48.810;12.352;2023-07-02T08:58:23;97074.25;;;19.73;56.51
74675;BME280;63200;48.810;12.352;2023-07-02T09:01:11;97067.69;;;19.62;56.30
74675;BME280;63200;48.810;12.352;2023-07-02T09:03:38;97071.47;;;20.37;56.00
74675;BME280;63200;48.810;12.352;2023-07-02T09:06:08;97066.00;;;20.57;52.62
74675;BME280;63200;48.810;12.352;2023-07-02T09:08:34;97077.56;;;21.41;49.20
74675;BME280;63200;48.810;12.352;2023-07-02T09:11:15;97080.09;;;21.50;51.79
74675;BME280;63200;48.810;12.352;2023-07-02T09:13:51;97084.31;;;21.86;47.98
74675;BME280;63200;48.810;12.352;2023-07-02T09:16:29;97073.72;;;22.15;48.23
74675;BME280;63200;48.810;12.352;2023-07-02T09:21:44;97074.50;;;21.89;46.71
74675;BME280;63200;48.810;12.352;2023-07-02T09:24:14;97075.81;;;22.49;46.34
74675;BME280;63200;48.810;12.352;2023-07-02T09:26:46;97076.03;;;23.24;46.58
74675;BME280;63200;48.810;12.352;2023-07-02T09:29:18;97068.56;;;23.69;43.60
74675;BME280;63200;48.810;12.352;2023-07-02T09:31:45;97075.91;;;23.47;44.16
74675;BME280;63200;48.810;12.352;2023-07-02T09:34:11;97075.47;;;22.80;43.88
74675;BME280;63200;48.810;12.352;2023-07-02T09:36:37;97074.25;;;22.78;45.12
74675;BME280;63200;48.810;12.352;2023-07-02T09:39:19;97069.06;;;23.07;44.87
74675;BME280;63200;48.810;12.352;2023-07-02T09:41:47;97049.91;;;22.91;44.61
74675;BME280;63200;48.810;12.352;2023-07-02T09:44:14;97072.97;;;22.18;45.71
74675;BME280;63200;48.810;12.352;2023-07-02T09:46:44;97075.16;;;21.82;46.48
74675;BME280;63200;48.810;12.352;2023-07-02T09:49:14;97069.25;;;20.98;47.88
74675;BME280;63200;48.810;12.352;2023-07-02T09:51:41;97062.91;;;20.78;47.30
74675;BME280;63200;48.810;12.352;2023-07-02T09:54:07;97069.75;;;20.48;49.06
74675;BME280;63200;48.810;12.352;2023-07-02T09:56:33;97062.69;;;22.15;46.84
74675;BME280;63200;48.810;12.352;2023-07-02T09:58:58;97062.97;;;22.90;43.18
74675;BME280;63200;48.810;12.352;2023-07-02T10:01:24;97066.31;;;21.96;45.39
74675;BME280;63200;48.810;12.352;2023-07-02T10:03:49;97054.97;;;22.85;44.20
74675;BME280;63200;48.810;12.352;2023-07-02T10:06:15;97049.81;;;23.93;40.38
74675;BME280;63200;48.810;12.352;2023-07-02T10:08:40;97053.38;;;23.93;40.90
74675;BME280;63200;48.810;12.352;2023-07-02T10:11:12;97055.94;;;24.17;41.50
74675;BME280;63200;48.810;12.352;2023-07-02T10:13:40;97057.72;;;25.31;39.64
74675;BME280;63200;48.810;12.352;2023-07-02T10:16:07;97053.84;;;25.61;36.38
74675;BME280;63200;48.810;12.352;2023-07-02T10:18:32;97036.28;;;25.24;38.29
74675;BME280;63200;48.810;12.352;2023-07-02T10:20:58;97049.66;;;24.27;38.16
74675;BME280;63200;48.810;12.352;2023-07-02T10:23:35;97028.72;;;23.06;40.60
74675;BME280;63200;48.810;12.352;2023-07-02T10:26:15;97039.19;;;24.02;38.33
74675;BME280;63200;48.810;12.352;2023-07-02T10:28:41;97015.56;;;22.95;39.63
74675;BME280;63200;48.810;12.352;2023-07-02T10:31:20;97042.75;;;23.58;39.91
74675;BME280;63200;48.810;12.352;2023-07-02T10:33:47;97036.94;;;24.89;37.83
74675;BME280;63200;48.810;12.352;2023-07-02T10:36:19;97039.53;;;25.52;35.90
74675;BME280;63200;48.810;12.352;2023-07-02T10:38:45;97031.59;;;25.54;36.17
74675;BME280;63200;48.810;12.352;2023-07-02T10:41:12;97053.66;;;24.29;38.30
74675;BME280;63200;48.810;12.352;2023-07-02T10:43:37;97049.25;;;24.25;37.53
74675;BME280;63200;48.810;12.352;2023-07-02T10:46:03;97044.28;;;25.58;32.90
74675;BME280;63200;48.810;12.352;2023-07-02T10:48:30;97019.97;;;25.12;34.87
74675;BME280;63200;48.810;12.352;2023-07-02T10:50:56;97022.50;;;25.75;35.69
74675;BME280;63200;48.810;12.352;2023-07-02T10:53:21;97048.69;;;25.63;34.46
74675;BME280;63200;48.810;12.352;2023-07-02T10:55:55;97024.91;;;26.05;34.88
74675;BME280;63200;48.810;12.352;2023-07-02T10:58:20;97038.13;;;24.88;34.59
74675;BME280;63200;48.810;12.352;2023-07-02T11:00:50;97034.28;;;25.21;32.90
74675;BME280;63200;48.810;12.352;2023-07-02T11:03:26;97035.97;;;25.55;34.76
74675;BME280;63200;48.810;12.352;2023-07-02T11:05:52;97039.16;;;26.00;34.16
74675;BME280;63200;48.810;12.352;2023-07-02T11:08:18;96979.13;;;25.20;32.29
74675;BME280;63200;48.810;12.352;2023-07-02T11:10:46;97025.16;;;25.28;33.11
74675;BME280;63200;48.810;12.352;2023-07-02T11:13:17;97030.41;;;25.62;31.78
74675;BME280;63200;48.810;12.352;2023-07-02T11:15:43;97028.75;;;26.58;30.46
74675;BME280;63200;48.810;12.352;2023-07-02T11:18:15;97031.91;;;26.79;29.61
74675;BME280;63200;48.810;12.352;2023-07-02T11:20:42;97034.59;;;27.04;29.30
74675;BME280;63200;48.810;12.352;2023-07-02T11:23:21;97035.56;;;26.28;31.51
74675;BME280;63200;48.810;12.352;2023-07-02T11:26:00;97029.72;;;27.22;29.15
74675;BME280;63200;48.810;12.352;2023-07-02T11:28:27;97037.94;;;25.51;31.68
74675;BME280;63200;48.810;12.352;2023-07-02T11:30:53;97032.84;;;24.61;33.30
74675;BME280;63200;48.810;12.352;2023-07-02T11:33:18;97027.44;;;23.71;34.66
74675;BME280;63200;48.810;12.352;2023-07-02T11:35:44;97035.47;;;25.24;31.96
74675;BME280;63200;48.810;12.352;2023-07-02T11:38:09;97037.56;;;26.03;31.58
74675;BME280;63200;48.810;12.352;2023-07-02T11:40:38;97032.38;;;26.48;30.41
74675;BME280;63200;48.810;12.352;2023-07-02T11:43:04;97021.47;;;27.04;29.83
74675;BME280;63200;48.810;12.352;2023-07-02T11:45:31;97025.66;;;25.73;30.75
74675;BME280;63200;48.810;12.352;2023-07-02T11:47:56;97021.59;;;25.27;32.40
74675;BME280;63200;48.810;12.352;2023-07-02T11:50:22;97008.53;;;25.42;31.06
74675;BME280;63200;48.810;12.352;2023-07-02T11:52:48;97027.94;;;25.21;32.57
74675;BME280;63200;48.810;12.352;2023-07-02T11:55:13;97031.22;;;25.88;31.30
74675;BME280;63200;48.810;12.352;2023-07-02T11:57:38;97035.97;;;25.55;32.88
74675;BME280;63200;48.810;12.352;2023-07-02T12:00:04;97025.25;;;25.75;30.52
74675;BME280;63200;48.810;12.352;2023-07-02T12:02:30;97022.38;;;26.69;30.17
74675;BME280;63200;48.810;12.352;2023-07-02T12:04:55;97028.22;;;27.07;29.44
74675;BME280;63200;48.810;12.352;2023-07-02T12:07:20;97022.03;;;28.04;26.82
74675;BME280;63200;48.810;12.352;2023-07-02T12:09:46;97031.63;;;27.40;26.94
74675;BME280;63200;48.810;12.352;2023-07-02T12:12:11;97032.31;;;25.29;30.60
74675;BME280;63200;48.810;12.352;2023-07-02T12:14:36;97022.50;;;26.18;31.21
74675;BME280;63200;48.810;12.352;2023-07-02T12:17:03;97023.28;;;26.04;28.84
74675;BME280;63200;48.810;12.352;2023-07-02T12:19:29;97004.41;;;24.86;31.97
74675;BME280;63200;48.810;12.352;2023-07-02T12:21:54;97032.50;;;24.70;31.16
74675;BME280;63200;48.810;12.352;2023-07-02T12:24:20;97025.25;;;26.00;28.75
74675;BME280;63200;48.810;12.352;2023-07-02T12:26:45;97035.41;;;26.97;29.76
74675;BME280;63200;48.810;12.352;2023-07-02T12:29:10;97027.25;;;26.39;27.92
74675;BME280;63200;48.810;12.352;2023-07-02T12:31:36;97002.22;;;27.28;28.04
74675;BME280;63200;48.810;12.352;2023-07-02T12:34:02;96976.06;;;27.07;27.63
74675;BME280;63200;48.810;12.352;2023-07-02T12:36:28;97004.22;;;27.24;28.79
74675;BME280;63200;48.810;12.352;2023-07-02T12:38:53;97012.41;;;27.60;26.00
74675;BME280;63200;48.810;12.352;2023-07-02T12:41:19;97005.28;;;28.04;27.32
74675;BME280;63200;48.810;12.352;2023-07-02T12:43:44;97012.84;;;27.55;27.66
74675;BME280;63200;48.810;12.352;2023-07-02T12:46:09;97008.13;;;27.45;28.36
74675;BME280;63200;48.810;12.352;2023-07-02T12:48:34;97015.69;;;27.44;27.84
74675;BME280;63200;48.810;12.352;2023-07-02T12:51:00;97011.88;;;28.25;25.84
74675;BME280;63200;48.810;12.352;2023-07-02T12:53:26;96963.13;;;26.65;26.87